createdAt,value
2022-10-31T00:01:13.830Z,5.67
2022-10-31T00:03:42.179Z,5.47
2022-10-31T00:06:10.480Z,5.10
2022-10-31T00:08:38.732Z,6.43
2022-10-31T00:11:12.627Z,6.13
2022-10-31T00:13:41.429Z,9.67
2022-10-31T00:16:17.168Z,10.83
2022-10-31T00:18:45.380Z,6.33
2022-10-31T00:21:13.986Z,8.53
2022-10-31T00:23:42.399Z,6.47
2022-10-31T00:26:11.973Z,11.73
2022-10-31T00:28:40.561Z,8.47
2022-10-31T00:31:11.106Z,13.83
2022-10-31T00:33:40.255Z,7.03
2022-10-31T00:36:10.232Z,6.50
2022-10-31T00:38:38.671Z,8.17
2022-10-31T00:41:06.879Z,6.30
2022-10-31T00:43:36.672Z,9.33
2022-10-31T00:46:05.691Z,7.93
2022-10-31T00:48:34.195Z,11.67
2022-10-31T00:51:02.295Z,14.23
2022-10-31T00:53:30.715Z,6.13
2022-10-31T00:55:59.093Z,7.97
2022-10-31T00:58:27.205Z,6.50
2022-10-31T01:00:57.363Z,7.83
2022-10-31T01:03:28.543Z,7.07
2022-10-31T01:06:01.551Z,6.73
2022-10-31T01:08:30.531Z,9.87
2022-10-31T01:11:03.803Z,5.53
2022-10-31T01:13:32.488Z,10.77
2022-10-31T01:16:02.449Z,5.73
2022-10-31T01:18:31.464Z,12.60
2022-10-31T01:21:01.234Z,8.10
2022-10-31T01:23:30.274Z,13.33
2022-10-31T01:26:03.468Z,15.27
2022-10-31T01:28:31.578Z,15.93
2022-10-31T01:31:04.903Z,11.47
2022-10-31T01:33:33.235Z,7.80
2022-10-31T01:36:01.701Z,8.70
2022-10-31T01:38:29.956Z,12.10
2022-10-31T01:40:58.020Z,11.50
2022-10-31T01:43:26.189Z,8.83
2022-10-31T01:45:56.691Z,8.33
2022-10-31T01:48:32.278Z,11.83
2022-10-31T01:51:01.427Z,10.60
2022-10-31T01:53:29.604Z,7.20
2022-10-31T01:55:58.113Z,8.57
2022-10-31T01:58:30.590Z,11.00
2022-10-31T02:01:04.885Z,15.43
2022-10-31T02:03:37.583Z,7.97
2022-10-31T02:06:12.817Z,11.13
2022-10-31T02:08:42.280Z,13.10
2022-10-31T02:11:11.313Z,18.10
2022-10-31T02:13:39.801Z,8.77
2022-10-31T02:16:08.676Z,8.03
2022-10-31T02:18:38.595Z,6.90
2022-10-31T02:21:17.724Z,15.57
2022-10-31T02:24:08.654Z,8.73
2022-10-31T02:26:53.712Z,14.73
2022-10-31T02:29:51.147Z,11.07
2022-10-31T02:32:27.641Z,12.80
2022-10-31T02:35:01.600Z,13.57
2022-10-31T02:37:38.376Z,14.53
2022-10-31T02:40:17.002Z,13.83
2022-10-31T02:42:53.338Z,10.60
2022-10-31T02:45:28.498Z,12.80
2022-10-31T02:48:03.121Z,10.00
2022-10-31T02:50:35.563Z,16.23
2022-10-31T02:53:05.376Z,12.53
2022-10-31T02:55:51.070Z,5.33
2022-10-31T02:58:23.499Z,12.17
2022-10-31T03:01:07.198Z,12.97
2022-10-31T03:03:43.415Z,23.03
2022-10-31T03:06:16.659Z,15.77
2022-10-31T03:08:50.939Z,12.87
2022-10-31T03:11:24.129Z,9.17
2022-10-31T03:13:55.036Z,20.10
2022-10-31T03:16:31.292Z,25.50
2022-10-31T03:19:05.714Z,15.43
2022-10-31T03:21:38.443Z,16.80
2022-10-31T03:24:08.424Z,10.63
2022-10-31T03:26:40.248Z,14.80
2022-10-31T03:29:13.364Z,17.83
2022-10-31T03:31:47.044Z,15.87
2022-10-31T03:34:19.201Z,15.00
2022-10-31T03:36:51.034Z,17.87
2022-10-31T03:39:23.434Z,13.13
2022-10-31T03:41:56.827Z,22.50
2022-10-31T03:44:29.201Z,19.93
2022-10-31T03:46:57.518Z,14.40
2022-10-31T03:49:27.596Z,17.53
2022-10-31T03:52:00.783Z,13.13
2022-10-31T03:54:36.055Z,19.07
2022-10-31T03:57:11.048Z,14.00
2022-10-31T03:59:44.150Z,16.60
2022-10-31T04:02:16.968Z,25.90
2022-10-31T04:04:48.535Z,26.60
2022-10-31T04:07:19.110Z,17.87
2022-10-31T04:09:49.913Z,30.53
2022-10-31T04:12:19.068Z,18.10
2022-10-31T04:14:51.637Z,16.27
2022-10-31T04:17:23.241Z,18.47
2022-10-31T04:19:53.792Z,20.43
2022-10-31T04:22:21.910Z,18.70
2022-10-31T04:24:50.359Z,22.27
2022-10-31T04:27:18.640Z,22.23
2022-10-31T04:29:49.843Z,18.77
2022-10-31T04:32:19.786Z,27.03
2022-10-31T04:34:47.862Z,16.97
2022-10-31T04:37:17.632Z,24.17
2022-10-31T04:39:46.075Z,28.53
2022-10-31T04:42:14.137Z,27.20
2022-10-31T04:44:42.216Z,40.17
2022-10-31T04:47:10.476Z,33.53
2022-10-31T04:49:38.555Z,56.47
2022-10-31T04:52:07.027Z,57.60
2022-10-31T04:54:36.957Z,73.57
2022-10-31T04:57:05.149Z,84.40
2022-10-31T04:59:33.248Z,68.20
2022-10-31T05:02:01.738Z,92.43
2022-10-31T05:04:29.970Z,136.17
2022-10-31T05:06:58.025Z,73.03
2022-10-31T05:09:26.770Z,99.90
2022-10-31T05:11:56.622Z,65.03
2022-10-31T05:14:24.749Z,72.03
2022-10-31T05:16:53.268Z,85.80
2022-10-31T05:19:21.749Z,69.97
2022-10-31T05:21:49.806Z,61.90
2022-10-31T05:24:18.265Z,48.33
2022-10-31T05:26:46.781Z,43.53
2022-10-31T05:29:16.212Z,36.10
2022-10-31T05:31:44.408Z,49.97
2022-10-31T05:34:13.022Z,74.80
2022-10-31T05:36:41.092Z,65.23
2022-10-31T05:39:09.580Z,30.47
2022-10-31T05:41:37.703Z,46.20
2022-10-31T05:44:06.050Z,71.07
2022-10-31T05:46:35.566Z,101.40
2022-10-31T05:49:03.976Z,111.40
2022-10-31T05:51:32.059Z,137.63
2022-10-31T05:54:00.581Z,111.63
2022-10-31T05:56:29.088Z,108.73
2022-10-31T05:58:57.383Z,115.17
2022-10-31T06:01:26.021Z,100.97
2022-10-31T06:03:55.875Z,171.23
2022-10-31T06:06:23.952Z,138.00
2022-10-31T06:08:52.548Z,126.90
2022-10-31T06:11:21.047Z,148.77
2022-10-31T06:13:49.096Z,110.93
2022-10-31T06:16:17.797Z,94.07
2022-10-31T06:18:45.882Z,132.70
2022-10-31T06:21:18.077Z,102.07
2022-10-31T06:23:47.832Z,123.20
2022-10-31T06:26:16.019Z,68.43
2022-10-31T06:28:44.178Z,90.10
2022-10-31T06:31:12.639Z,97.80
2022-10-31T06:33:42.602Z,63.87
2022-10-31T06:36:11.166Z,50.67
2022-10-31T06:38:41.148Z,76.17
2022-10-31T06:41:09.682Z,70.90
2022-10-31T06:43:37.863Z,55.20
2022-10-31T06:46:07.037Z,73.70
2022-10-31T06:48:36.436Z,71.57
2022-10-31T06:51:04.860Z,58.73
2022-10-31T06:53:33.338Z,61.07
2022-10-31T06:56:03.170Z,57.33
2022-10-31T06:58:31.286Z,73.20
2022-10-31T07:01:01.924Z,65.63
2022-10-31T07:03:30.154Z,61.60
2022-10-31T07:05:58.781Z,44.37
2022-10-31T07:08:27.845Z,49.90
2022-10-31T07:10:58.201Z,41.90
2022-10-31T07:13:27.747Z,55.67
2022-10-31T07:15:57.220Z,44.63
2022-10-31T07:18:25.324Z,55.73
2022-10-31T07:20:54.100Z,50.33
2022-10-31T07:23:22.897Z,61.10
2022-10-31T07:25:50.990Z,56.83
2022-10-31T07:28:19.171Z,48.27
2022-10-31T07:30:52.374Z,65.77
2022-10-31T07:33:20.646Z,70.03
2022-10-31T07:35:49.081Z,68.13
2022-10-31T07:38:18.099Z,69.23
2022-10-31T07:40:51.495Z,68.30
2022-10-31T07:43:20.158Z,74.73
2022-10-31T07:45:53.793Z,83.07
2022-10-31T07:48:22.317Z,73.23
2022-10-31T07:50:50.949Z,73.80
2022-10-31T07:53:19.010Z,73.73
2022-10-31T07:55:47.241Z,68.83
2022-10-31T07:58:17.049Z,65.13
2022-10-31T08:00:46.944Z,67.27
2022-10-31T08:03:19.240Z,62.50
2022-10-31T08:05:48.238Z,72.43
2022-10-31T08:08:17.481Z,58.30
2022-10-31T08:10:45.834Z,68.23
2022-10-31T08:13:15.956Z,55.70
2022-10-31T08:15:44.096Z,43.53
2022-10-31T08:18:15.483Z,57.83
2022-10-31T08:20:45.809Z,54.73
2022-10-31T08:23:15.036Z,53.17
2022-10-31T08:25:44.318Z,51.37
2022-10-31T08:28:13.509Z,42.23
2022-10-31T08:30:42.487Z,50.97
2022-10-31T08:33:14.135Z,36.90
2022-10-31T08:35:44.372Z,47.87
2022-10-31T08:38:13.725Z,48.10
2022-10-31T08:40:42.276Z,46.13
2022-10-31T08:43:14.591Z,40.80
2022-10-31T08:45:44.227Z,41.43
2022-10-31T08:48:15.136Z,51.77
2022-10-31T08:50:46.188Z,38.90
2022-10-31T08:53:16.191Z,42.50
2022-10-31T08:55:45.795Z,37.67
2022-10-31T08:58:16.771Z,40.13
2022-10-31T09:00:46.226Z,49.80
2022-10-31T09:03:16.903Z,39.43
2022-10-31T09:05:47.157Z,54.57
2022-10-31T09:08:17.219Z,49.30
2022-10-31T09:10:46.398Z,40.07
2022-10-31T09:13:16.647Z,53.57
2022-10-31T09:15:47.040Z,45.33
2022-10-31T09:18:16.784Z,38.40
2022-10-31T09:20:47.977Z,38.10
2022-10-31T09:23:18.191Z,37.77
2022-10-31T09:25:50.469Z,41.03
2022-10-31T09:28:21.424Z,36.80
2022-10-31T09:30:50.595Z,39.20
2022-10-31T09:33:19.620Z,38.07
2022-10-31T09:35:49.835Z,37.60
2022-10-31T09:38:20.806Z,34.57
2022-10-31T09:40:51.420Z,31.70
2022-10-31T09:43:27.218Z,35.17
2022-10-31T09:46:07.159Z,42.80
2022-10-31T09:48:52.592Z,45.07
2022-10-31T09:51:26.553Z,35.97
2022-10-31T09:54:02.728Z,42.00
2022-10-31T09:56:33.549Z,38.27
2022-10-31T09:59:03.344Z,48.57
2022-10-31T10:01:42.083Z,37.53
2022-10-31T10:04:30.079Z,42.80
2022-10-31T10:07:01.076Z,33.57
2022-10-31T10:09:29.851Z,34.63
2022-10-31T10:12:16.492Z,32.70
2022-10-31T10:14:59.263Z,36.10
2022-10-31T10:17:37.629Z,38.40
2022-10-31T10:20:24.305Z,42.93
2022-10-31T10:23:01.809Z,36.67
2022-10-31T10:25:35.952Z,38.03
2022-10-31T10:28:17.086Z,33.57
2022-10-31T10:30:49.172Z,37.63
2022-10-31T10:33:22.512Z,35.27
2022-10-31T10:35:55.506Z,32.90
2022-10-31T10:38:33.761Z,30.27
2022-10-31T10:41:06.939Z,34.37
2022-10-31T10:43:37.750Z,28.07
2022-10-31T10:46:38.763Z,26.17
2022-10-31T10:49:17.124Z,26.27
2022-10-31T10:54:48.918Z,27.23
2022-10-31T10:57:29.100Z,23.83
2022-10-31T10:59:57.788Z,22.93
2022-10-31T11:02:29.096Z,21.67
2022-10-31T11:05:00.999Z,20.47
2022-10-31T11:07:40.787Z,21.00
2022-10-31T11:10:18.866Z,19.33
2022-10-31T11:13:00.226Z,18.40
2022-10-31T11:15:31.079Z,20.07
2022-10-31T11:18:00.228Z,20.23
2022-10-31T11:20:33.313Z,26.07
2022-10-31T11:23:17.280Z,20.33
2022-10-31T11:25:53.795Z,18.33
2022-10-31T11:28:22.016Z,14.37
2022-10-31T11:30:53.322Z,20.70
2022-10-31T11:33:26.648Z,16.00
2022-10-31T11:35:58.110Z,16.23
2022-10-31T11:38:36.196Z,19.17
2022-10-31T11:41:13.094Z,13.90
2022-10-31T11:43:48.865Z,16.63
2022-10-31T11:46:22.707Z,14.70
2022-10-31T11:48:55.353Z,13.93
2022-10-31T11:51:26.441Z,13.67
2022-10-31T11:53:59.902Z,15.07
2022-10-31T11:56:40.498Z,10.73
2022-10-31T11:59:20.029Z,13.50
2022-10-31T12:01:52.787Z,15.63
2022-10-31T12:04:23.831Z,15.90
2022-10-31T12:06:53.945Z,13.33
2022-10-31T12:09:24.934Z,14.30
2022-10-31T12:12:12.807Z,14.30
2022-10-31T12:14:57.233Z,15.37
2022-10-31T12:17:31.630Z,14.70
2022-10-31T12:20:08.599Z,12.73
2022-10-31T12:22:44.144Z,15.23
2022-10-31T12:25:23.901Z,11.83
2022-10-31T12:28:08.836Z,11.90
2022-10-31T12:30:52.080Z,15.97
2022-10-31T12:33:34.772Z,13.07
2022-10-31T12:36:17.222Z,13.33
2022-10-31T12:39:15.107Z,11.90
2022-10-31T12:41:50.080Z,16.00
2022-10-31T12:44:42.719Z,12.83
2022-10-31T12:47:38.279Z,16.03
2022-10-31T12:50:20.637Z,10.87
2022-10-31T12:52:59.304Z,10.27
2022-10-31T12:55:40.270Z,15.17
2022-10-31T12:58:14.624Z,9.53
2022-10-31T13:00:48.641Z,11.13
2022-10-31T13:03:31.145Z,10.37
2022-10-31T13:06:04.766Z,12.30
2022-10-31T13:08:42.049Z,9.70
2022-10-31T13:11:14.480Z,14.17
2022-10-31T13:13:45.022Z,11.07
2022-10-31T13:16:18.886Z,11.53
2022-10-31T13:18:53.651Z,10.07
2022-10-31T13:21:25.300Z,11.53
2022-10-31T13:23:53.888Z,9.07
2022-10-31T13:26:29.671Z,15.63
2022-10-31T13:29:07.635Z,13.43
2022-10-31T13:31:37.584Z,12.33
2022-10-31T13:34:18.341Z,11.17
2022-10-31T13:36:54.096Z,15.00
2022-10-31T13:39:31.025Z,9.97
2022-10-31T13:42:06.174Z,16.43
2022-10-31T13:44:38.782Z,12.30
2022-10-31T13:47:25.142Z,10.00
2022-10-31T13:49:53.653Z,6.40
2022-10-31T13:52:26.830Z,12.20
2022-10-31T13:54:59.340Z,12.07
2022-10-31T13:57:34.956Z,12.87
2022-10-31T14:00:06.237Z,12.10
2022-10-31T14:02:38.741Z,10.67
2022-10-31T14:05:20.830Z,10.97
2022-10-31T14:07:50.233Z,11.03
2022-10-31T14:10:26.937Z,12.47
2022-10-31T14:12:57.708Z,11.23
2022-10-31T14:15:29.016Z,11.00
2022-10-31T14:18:01.846Z,14.00
2022-10-31T14:20:40.773Z,8.23
2022-10-31T14:23:41.448Z,10.03
2022-10-31T14:26:32.364Z,12.43
2022-10-31T14:29:03.120Z,11.57
2022-10-31T14:31:37.989Z,16.13
2022-10-31T14:34:23.913Z,17.10
2022-10-31T14:37:25.010Z,9.10
2022-10-31T14:40:06.836Z,8.83
2022-10-31T14:42:48.381Z,11.03
2022-10-31T14:45:28.410Z,9.70
2022-10-31T14:48:12.380Z,17.80
2022-10-31T14:50:50.951Z,7.73
2022-10-31T14:53:25.456Z,9.57
2022-10-31T14:55:56.198Z,9.70
2022-10-31T14:58:30.582Z,10.93
2022-10-31T15:00:59.618Z,10.07
2022-10-31T15:03:32.983Z,11.33
2022-10-31T15:06:07.625Z,11.30
2022-10-31T15:08:39.755Z,13.23
2022-10-31T15:11:16.389Z,10.87
2022-10-31T15:13:49.362Z,19.30
2022-10-31T15:16:21.555Z,11.13
2022-10-31T15:18:56.094Z,8.37
2022-10-31T15:21:27.782Z,10.07
2022-10-31T15:23:57.281Z,10.63
2022-10-31T15:26:29.712Z,11.63
2022-10-31T15:29:03.330Z,9.73
2022-10-31T15:31:33.182Z,12.77
2022-10-31T15:34:05.338Z,10.57
2022-10-31T15:36:38.495Z,12.97
2022-10-31T15:39:07.299Z,14.13
2022-10-31T15:41:40.387Z,13.97
2022-10-31T15:44:16.387Z,10.47
2022-10-31T15:46:45.129Z,17.23
2022-10-31T15:49:28.575Z,18.53
2022-10-31T15:52:01.023Z,12.07
2022-10-31T15:54:30.356Z,16.23
2022-10-31T15:56:59.022Z,17.27
2022-10-31T15:59:31.065Z,12.43
2022-10-31T16:02:03.213Z,12.47
2022-10-31T16:04:31.954Z,11.80
2022-10-31T16:07:05.772Z,15.83
2022-10-31T16:09:33.944Z,12.87
2022-10-31T16:12:02.577Z,18.40
2022-10-31T16:14:35.279Z,14.27
2022-10-31T16:17:03.995Z,16.37
2022-10-31T16:19:36.059Z,17.57
2022-10-31T16:22:11.040Z,24.73
2022-10-31T16:24:48.473Z,17.17
2022-10-31T16:27:24.499Z,14.33
2022-10-31T16:29:52.615Z,12.57
2022-10-31T16:32:29.381Z,22.00
2022-10-31T16:35:19.403Z,17.73
2022-10-31T16:37:49.290Z,18.60
2022-10-31T16:40:17.588Z,18.30
2022-10-31T16:42:48.209Z,18.97
2022-10-31T16:45:19.700Z,21.07
2022-10-31T16:47:49.324Z,22.40
2022-10-31T16:50:19.527Z,18.77
2022-10-31T16:55:45.509Z,15.17
2022-10-31T16:58:18.417Z,23.60
2022-10-31T17:00:47.118Z,21.67
2022-10-31T17:03:15.687Z,20.93
2022-10-31T17:05:43.896Z,24.53
2022-10-31T17:08:13.769Z,17.67
2022-10-31T17:10:43.862Z,24.67
2022-10-31T17:13:18.360Z,18.50
2022-10-31T17:15:49.648Z,27.40
2022-10-31T17:18:21.679Z,18.40
2022-10-31T17:20:59.627Z,21.97
2022-10-31T17:23:30.600Z,15.37
2022-10-31T17:25:58.888Z,15.10
2022-10-31T17:28:27.969Z,14.47
2022-10-31T17:30:59.207Z,13.47
2022-10-31T17:33:27.563Z,19.90
2022-10-31T17:35:56.638Z,10.90
2022-10-31T17:38:24.809Z,16.17
2022-10-31T17:40:54.701Z,11.30
2022-10-31T17:43:27.484Z,18.33
2022-10-31T17:45:55.978Z,17.17
2022-10-31T17:48:24.084Z,13.67
2022-10-31T17:50:52.586Z,14.30
2022-10-31T17:53:21.055Z,16.40
2022-10-31T17:55:49.168Z,14.60
2022-10-31T17:58:18.768Z,17.17
2022-10-31T18:00:50.433Z,15.73
2022-10-31T18:03:19.638Z,13.43
2022-10-31T18:05:53.643Z,14.87
2022-10-31T18:08:25.234Z,12.23
2022-10-31T18:10:53.532Z,14.20
2022-10-31T18:13:23.663Z,16.20
2022-10-31T18:15:52.224Z,21.23
2022-10-31T18:18:20.369Z,15.23
2022-10-31T18:20:48.560Z,11.47
2022-10-31T18:23:17.074Z,14.13
2022-10-31T18:25:45.172Z,15.87
2022-10-31T18:28:13.713Z,11.77
2022-10-31T18:30:43.826Z,19.70
2022-10-31T18:33:11.952Z,15.40
2022-10-31T18:35:41.244Z,12.77
2022-10-31T18:38:10.281Z,18.70
2022-10-31T18:40:39.353Z,15.70
2022-10-31T18:43:07.681Z,13.03
2022-10-31T18:45:55.223Z,12.30
2022-10-31T18:48:28.359Z,17.93
2022-10-31T18:50:58.241Z,13.63
2022-10-31T18:53:26.882Z,15.13
2022-10-31T18:55:54.947Z,15.27
2022-10-31T18:58:23.625Z,14.77
2022-10-31T19:00:52.367Z,10.60
2022-10-31T19:03:25.712Z,16.33
2022-10-31T19:05:57.728Z,12.43
2022-10-31T19:08:25.983Z,19.73
2022-10-31T19:10:54.078Z,14.43
2022-10-31T19:13:22.884Z,14.93
2022-10-31T19:15:51.019Z,16.07
2022-10-31T19:18:19.501Z,16.20
2022-10-31T19:20:48.012Z,16.97
2022-10-31T19:23:17.561Z,16.93
2022-10-31T19:25:45.661Z,20.23
2022-10-31T19:28:14.311Z,14.00
2022-10-31T19:30:42.453Z,13.47
2022-10-31T19:33:10.525Z,16.53
2022-10-31T19:35:39.136Z,22.50
2022-10-31T19:38:07.222Z,14.73
2022-10-31T19:40:37.683Z,15.27
2022-10-31T19:43:06.252Z,12.83
2022-10-31T19:45:34.316Z,23.53
2022-10-31T19:48:02.748Z,17.83
2022-10-31T19:50:31.292Z,15.17
2022-10-31T19:52:59.414Z,16.50
2022-10-31T19:55:27.538Z,14.70
2022-10-31T19:58:11.121Z,19.40
2022-10-31T20:00:39.436Z,12.27
2022-10-31T20:03:08.693Z,15.60
2022-10-31T20:05:41.860Z,18.53
2022-10-31T20:08:14.940Z,19.33
2022-10-31T20:10:43.086Z,18.43
2022-10-31T20:13:15.402Z,14.47
2022-10-31T20:15:43.529Z,18.50
2022-10-31T20:18:11.723Z,19.27
2022-10-31T20:20:40.055Z,15.23
2022-10-31T20:23:08.171Z,16.80
2022-10-31T20:25:36.280Z,16.07
2022-10-31T20:28:05.109Z,13.47
2022-10-31T20:30:38.132Z,13.93
2022-10-31T20:33:06.739Z,23.60
2022-10-31T20:35:37.933Z,18.70
2022-10-31T20:38:06.824Z,14.87
2022-10-31T20:40:35.568Z,15.57
2022-10-31T20:43:05.295Z,12.67
2022-10-31T20:45:34.759Z,16.10
2022-10-31T20:48:03.308Z,19.30
2022-10-31T20:50:32.159Z,21.23
2022-10-31T20:53:00.661Z,19.70
2022-10-31T20:55:29.203Z,16.70
2022-10-31T20:57:57.616Z,19.87
2022-10-31T21:00:25.740Z,12.97
2022-10-31T21:02:55.336Z,18.00
2022-10-31T21:05:23.499Z,24.37
2022-10-31T21:10:24.728Z,14.27
2022-10-31T21:12:52.837Z,18.73
2022-10-31T21:15:20.941Z,18.93
2022-10-31T21:17:49.617Z,19.43
2022-10-31T21:20:19.182Z,21.97
2022-10-31T21:22:47.302Z,16.37
2022-10-31T21:25:15.555Z,13.10
2022-10-31T21:27:43.658Z,19.53
2022-10-31T21:30:12.123Z,17.70
2022-10-31T21:32:40.767Z,25.73
2022-10-31T21:35:09.625Z,22.17
2022-10-31T21:37:39.087Z,13.53
2022-10-31T21:40:08.587Z,22.10
2022-10-31T21:42:36.648Z,21.63
2022-10-31T21:45:05.248Z,15.63
2022-10-31T21:47:33.425Z,24.97
2022-10-31T21:50:01.511Z,18.13
2022-10-31T21:52:29.601Z,37.77
2022-10-31T21:54:58.340Z,261.60
2022-10-31T21:57:26.449Z,18.00
2022-10-31T21:59:54.586Z,27.20
2022-10-31T22:02:22.983Z,17.20
2022-10-31T22:04:51.500Z,14.47
2022-10-31T22:07:20.009Z,15.27
2022-10-31T22:09:48.596Z,24.10
2022-10-31T22:12:18.457Z,24.07
2022-10-31T22:14:46.550Z,14.93
2022-10-31T22:17:15.292Z,23.50
2022-10-31T22:19:43.396Z,25.83
2022-10-31T22:22:13.194Z,25.43
2022-10-31T22:24:41.733Z,28.40
2022-10-31T22:27:09.821Z,27.80
2022-10-31T22:29:39.326Z,19.43
2022-10-31T22:32:07.548Z,21.00
2022-10-31T22:34:35.653Z,40.30
2022-10-31T22:37:03.752Z,30.37
2022-10-31T22:39:32.309Z,19.90
2022-10-31T22:42:00.819Z,24.90
2022-10-31T22:44:28.892Z,66.70
2022-10-31T22:46:58.798Z,21.20
2022-10-31T22:49:26.983Z,26.13
2022-10-31T22:51:56.047Z,17.77
2022-10-31T22:54:24.556Z,14.83
2022-10-31T22:56:52.761Z,15.17
2022-10-31T22:59:20.875Z,24.00
2022-10-31T23:01:49.426Z,20.50
2022-10-31T23:04:18.987Z,20.03
2022-10-31T23:06:49.141Z,22.60
2022-10-31T23:09:18.902Z,24.60
2022-10-31T23:11:47.418Z,22.30
2022-10-31T23:14:19.564Z,24.77
2022-10-31T23:16:50.168Z,26.63
2022-10-31T23:19:22.726Z,19.80
2022-10-31T23:21:56.428Z,19.40
2022-10-31T23:24:27.908Z,21.50
2022-10-31T23:27:07.148Z,21.30
2022-10-31T23:29:37.044Z,24.33
2022-10-31T23:32:06.077Z,27.37
2022-10-31T23:34:35.807Z,39.77
2022-10-31T23:37:03.969Z,24.77
2022-10-31T23:39:32.076Z,27.67
2022-10-31T23:42:00.684Z,28.40
2022-10-31T23:44:29.088Z,19.60
2022-10-31T23:46:57.232Z,23.47
2022-10-31T23:49:25.405Z,22.77
2022-10-31T23:51:56.612Z,24.70
2022-10-31T23:54:24.854Z,20.60
2022-10-31T23:56:53.540Z,23.80
2022-10-31T23:59:23.282Z,15.07
